sensor_id;sensor_type;location;lat;lon;timestamp;P1;durP1;ratioP1;P2;durP2;ratioP2
56285;SDS011;42191;47.562;9.686;2023-03-25T00:01:00;35.75;;;33.42;;
56285;SDS011;42191;47.562;9.686;2023-03-25T00:03:29;35.75;;;33.63;;
56285;SDS011;42191;47.562;9.686;2023-03-25T00:05:59;35.25;;;33.05;;
56285;SDS011;42191;47.562;9.686;2023-03-25T00:08:26;36.95;;;34.75;;
56285;SDS011;42191;47.562;9.686;2023-03-25T00:10:57;37.85;;;35.60;;
56285;SDS011;42191;47.562;9.686;2023-03-25T00:13:25;34.22;;;32.15;;
56285;SDS011;42191;47.562;9.686;2023-03-25T00:15:52;33.97;;;31.88;;
56285;SDS011;42191;47.562;9.686;2023-03-25T00:18:22;35.55;;;33.33;;
56285;SDS011;42191;47.562;9.686;2023-03-25T00:20:50;35.60;;;33.40;;
56285;SDS011;42191;47.562;9.686;2023-03-25T00:23:20;36.65;;;34.35;;
56285;SDS011;42191;47.562;9.686;2023-03-25T00:25:47;35.55;;;33.45;;
56285;SDS011;42191;47.562;9.686;2023-03-25T00:28:14;35.10;;;32.90;;
56285;SDS011;42191;47.562;9.686;2023-03-25T00:30:41;36.28;;;34.05;;
56285;SDS011;42191;47.562;9.686;2023-03-25T00:33:09;34.42;;;32.38;;
56285;SDS011;42191;47.562;9.686;2023-03-25T00:35:37;35.33;;;33.22;;
56285;SDS011;42191;47.562;9.686;2023-03-25T00:38:08;34.92;;;32.88;;
56285;SDS011;42191;47.562;9.686;2023-03-25T00:40:38;37.00;;;34.80;;
56285;SDS011;42191;47.562;9.686;2023-03-25T00:43:04;35.05;;;32.95;;
56285;SDS011;42191;47.562;9.686;2023-03-25T00:45:31;36.22;;;34.03;;
56285;SDS011;42191;47.562;9.686;2023-03-25T00:47:58;35.97;;;33.72;;
56285;SDS011;42191;47.562;9.686;2023-03-25T00:50:24;34.55;;;32.47;;
56285;SDS011;42191;47.562;9.686;2023-03-25T00:52:50;36.05;;;33.85;;
56285;SDS011;42191;47.562;9.686;2023-03-25T00:55:19;36.22;;;33.97;;
56285;SDS011;42191;47.562;9.686;2023-03-25T00:57:46;35.60;;;33.50;;
56285;SDS011;42191;47.562;9.686;2023-03-25T01:00:13;36.30;;;33.97;;
56285;SDS011;42191;47.562;9.686;2023-03-25T01:02:41;35.65;;;33.47;;
56285;SDS011;42191;47.562;9.686;2023-03-25T01:05:09;36.03;;;33.92;;
56285;SDS011;42191;47.562;9.686;2023-03-25T01:07:38;36.53;;;34.33;;
56285;SDS011;42191;47.562;9.686;2023-03-25T01:10:06;35.38;;;33.28;;
56285;SDS011;42191;47.562;9.686;2023-03-25T01:12:32;34.92;;;32.78;;
56285;SDS011;42191;47.562;9.686;2023-03-25T01:14:59;34.33;;;32.25;;
56285;SDS011;42191;47.562;9.686;2023-03-25T01:17:25;35.08;;;32.97;;
56285;SDS011;42191;47.562;9.686;2023-03-25T01:19:51;36.42;;;34.25;;
56285;SDS011;42191;47.562;9.686;2023-03-25T01:22:18;35.67;;;33.47;;
56285;SDS011;42191;47.562;9.686;2023-03-25T01:24:44;35.50;;;33.30;;
56285;SDS011;42191;47.562;9.686;2023-03-25T01:27:10;36.45;;;34.25;;
56285;SDS011;42191;47.562;9.686;2023-03-25T01:29:36;35.95;;;33.45;;
56285;SDS011;42191;47.562;9.686;2023-03-25T01:32:02;36.80;;;34.60;;
56285;SDS011;42191;47.562;9.686;2023-03-25T01:34:30;37.78;;;35.47;;
56285;SDS011;42191;47.562;9.686;2023-03-25T01:36:57;36.30;;;34.03;;
56285;SDS011;42191;47.562;9.686;2023-03-25T01:39:24;37.95;;;35.67;;
56285;SDS011;42191;47.562;9.686;2023-03-25T01:41:51;36.78;;;34.58;;
56285;SDS011;42191;47.562;9.686;2023-03-25T01:46:45;38.63;;;36.22;;
56285;SDS011;42191;47.562;9.686;2023-03-25T01:49:17;36.13;;;33.90;;
56285;SDS011;42191;47.562;9.686;2023-03-25T01:51:48;38.08;;;35.65;;
56285;SDS011;42191;47.562;9.686;2023-03-25T01:54:18;36.88;;;34.58;;
56285;SDS011;42191;47.562;9.686;2023-03-25T01:56:46;37.35;;;35.03;;
56285;SDS011;42191;47.562;9.686;2023-03-25T01:59:14;35.63;;;33.33;;
56285;SDS011;42191;47.562;9.686;2023-03-25T02:01:44;35.25;;;33.05;;
56285;SDS011;42191;47.562;9.686;2023-03-25T02:04:10;37.47;;;35.25;;
56285;SDS011;42191;47.562;9.686;2023-03-25T02:06:41;37.92;;;35.63;;
56285;SDS011;42191;47.562;9.686;2023-03-25T02:09:10;36.80;;;34.60;;
56285;SDS011;42191;47.562;9.686;2023-03-25T02:11:38;36.67;;;34.38;;
56285;SDS011;42191;47.562;9.686;2023-03-25T02:14:08;36.58;;;34.28;;
56285;SDS011;42191;47.562;9.686;2023-03-25T02:22:24;37.40;;;35.00;;
56285;SDS011;42191;47.562;9.686;2023-03-25T02:25:27;37.30;;;35.05;;
56285;SDS011;42191;47.562;9.686;2023-03-25T02:33:49;36.88;;;34.67;;
56285;SDS011;42191;47.562;9.686;2023-03-25T02:36:41;36.00;;;33.90;;
56285;SDS011;42191;47.562;9.686;2023-03-25T02:41:58;36.78;;;34.45;;
56285;SDS011;42191;47.562;9.686;2023-03-25T02:44:40;34.72;;;32.72;;
56285;SDS011;42191;47.562;9.686;2023-03-25T02:47:18;36.65;;;34.45;;
56285;SDS011;42191;47.562;9.686;2023-03-25T02:49:49;35.92;;;33.58;;
56285;SDS011;42191;47.562;9.686;2023-03-25T02:52:23;35.75;;;33.65;;
56285;SDS011;42191;47.562;9.686;2023-03-25T02:54:52;35.78;;;33.58;;
56285;SDS011;42191;47.562;9.686;2023-03-25T02:57:22;36.10;;;33.90;;
56285;SDS011;42191;47.562;9.686;2023-03-25T02:59:52;36.15;;;33.95;;
56285;SDS011;42191;47.562;9.686;2023-03-25T03:02:21;37.30;;;35.08;;
56285;SDS011;42191;47.562;9.686;2023-03-25T03:04:53;36.58;;;34.38;;
56285;SDS011;42191;47.562;9.686;2023-03-25T03:07:24;35.65;;;33.53;;
56285;SDS011;42191;47.562;9.686;2023-03-25T03:09:57;35.60;;;33.38;;
56285;SDS011;42191;47.562;9.686;2023-03-25T03:12:48;35.85;;;33.75;;
56285;SDS011;42191;47.562;9.686;2023-03-25T03:21:16;36.40;;;34.30;;
56285;SDS011;42191;47.562;9.686;2023-03-25T03:26:44;36.05;;;33.95;;
56285;SDS011;42191;47.562;9.686;2023-03-25T03:29:28;38.25;;;35.95;;
56285;SDS011;42191;47.562;9.686;2023-03-25T03:32:12;36.53;;;34.42;;
56285;SDS011;42191;47.562;9.686;2023-03-25T03:34:58;36.85;;;34.65;;
56285;SDS011;42191;47.562;9.686;2023-03-25T03:37:31;36.30;;;34.17;;
56285;SDS011;42191;47.562;9.686;2023-03-25T03:40:02;36.25;;;34.05;;
56285;SDS011;42191;47.562;9.686;2023-03-25T03:42:33;37.08;;;34.88;;
56285;SDS011;42191;47.562;9.686;2023-03-25T03:45:03;36.00;;;33.90;;
56285;SDS011;42191;47.562;9.686;2023-03-25T03:47:35;38.03;;;35.65;;
56285;SDS011;42191;47.562;9.686;2023-03-25T03:50:07;38.10;;;35.90;;
56285;SDS011;42191;47.562;9.686;2023-03-25T03:52:39;38.92;;;36.35;;
56285;SDS011;42191;47.562;9.686;2023-03-25T03:55:11;39.97;;;37.38;;
56285;SDS011;42191;47.562;9.686;2023-03-25T03:57:47;38.95;;;36.55;;
56285;SDS011;42191;47.562;9.686;2023-03-25T04:00:25;37.80;;;35.40;;
56285;SDS011;42191;47.562;9.686;2023-03-25T04:03:06;37.65;;;35.45;;
56285;SDS011;42191;47.562;9.686;2023-03-25T04:05:41;36.25;;;34.05;;
56285;SDS011;42191;47.562;9.686;2023-03-25T04:08:27;37.50;;;34.90;;
56285;SDS011;42191;47.562;9.686;2023-03-25T04:11:09;36.47;;;34.38;;
56285;SDS011;42191;47.562;9.686;2023-03-25T04:13:41;37.42;;;35.22;;
56285;SDS011;42191;47.562;9.686;2023-03-25T04:16:10;35.40;;;33.30;;
56285;SDS011;42191;47.562;9.686;2023-03-25T04:18:37;36.38;;;34.17;;
56285;SDS011;42191;47.562;9.686;2023-03-25T04:21:03;35.47;;;33.35;;
56285;SDS011;42191;47.562;9.686;2023-03-25T04:23:30;36.35;;;34.25;;
56285;SDS011;42191;47.562;9.686;2023-03-25T04:25:58;34.72;;;32.70;;
56285;SDS011;42191;47.562;9.686;2023-03-25T04:28:26;36.55;;;34.30;;
56285;SDS011;42191;47.562;9.686;2023-03-25T04:30:53;37.45;;;35.15;;
56285;SDS011;42191;47.562;9.686;2023-03-25T04:33:24;37.03;;;34.85;;
56285;SDS011;42191;47.562;9.686;2023-03-25T04:35:53;37.47;;;35.28;;
56285;SDS011;42191;47.562;9.686;2023-03-25T04:38:20;35.72;;;33.63;;
56285;SDS011;42191;47.562;9.686;2023-03-25T04:40:46;36.85;;;34.65;;
56285;SDS011;42191;47.562;9.686;2023-03-25T04:43:13;35.13;;;33.00;;
56285;SDS011;42191;47.562;9.686;2023-03-25T04:45:40;35.92;;;33.83;;
56285;SDS011;42191;47.562;9.686;2023-03-25T04:50:48;36.70;;;34.60;;
56285;SDS011;42191;47.562;9.686;2023-03-25T04:53:15;36.90;;;34.78;;
56285;SDS011;42191;47.562;9.686;2023-03-25T04:55:42;35.30;;;33.30;;
56285;SDS011;42191;47.562;9.686;2023-03-25T04:58:12;35.95;;;33.85;;
56285;SDS011;42191;47.562;9.686;2023-03-25T05:00:42;35.50;;;33.45;;
56285;SDS011;42191;47.562;9.686;2023-03-25T05:03:09;36.95;;;34.83;;
56285;SDS011;42191;47.562;9.686;2023-03-25T05:05:36;37.45;;;35.20;;
56285;SDS011;42191;47.562;9.686;2023-03-25T05:08:02;36.15;;;34.05;;
56285;SDS011;42191;47.562;9.686;2023-03-25T05:10:28;36.17;;;34.08;;
56285;SDS011;42191;47.562;9.686;2023-03-25T05:12:59;35.95;;;33.85;;
56285;SDS011;42191;47.562;9.686;2023-03-25T05:15:36;35.90;;;33.80;;
56285;SDS011;42191;47.562;9.686;2023-03-25T05:18:09;39.03;;;36.72;;
56285;SDS011;42191;47.562;9.686;2023-03-25T05:20:38;36.58;;;34.47;;
56285;SDS011;42191;47.562;9.686;2023-03-25T05:23:06;36.90;;;34.80;;
56285;SDS011;42191;47.562;9.686;2023-03-25T05:25:42;36.42;;;34.20;;
56285;SDS011;42191;47.562;9.686;2023-03-25T05:28:10;37.10;;;34.95;;
56285;SDS011;42191;47.562;9.686;2023-03-25T05:30:38;38.58;;;36.38;;
56285;SDS011;42191;47.562;9.686;2023-03-25T05:33:09;36.40;;;34.30;;
56285;SDS011;42191;47.562;9.686;2023-03-25T05:35:36;38.35;;;36.15;;
56285;SDS011;42191;47.562;9.686;2023-03-25T05:38:03;37.65;;;35.45;;
56285;SDS011;42191;47.562;9.686;2023-03-25T05:40:32;34.88;;;32.88;;
56285;SDS011;42191;47.562;9.686;2023-03-25T05:42:59;35.80;;;33.72;;
56285;SDS011;42191;47.562;9.686;2023-03-25T05:45:26;37.00;;;34.88;;
56285;SDS011;42191;47.562;9.686;2023-03-25T05:47:53;37.35;;;35.15;;
56285;SDS011;42191;47.562;9.686;2023-03-25T05:50:20;34.58;;;32.58;;
56285;SDS011;42191;47.562;9.686;2023-03-25T05:52:47;37.20;;;35.08;;
56285;SDS011;42191;47.562;9.686;2023-03-25T05:55:15;35.72;;;33.65;;
56285;SDS011;42191;47.562;9.686;2023-03-25T05:57:44;38.00;;;35.80;;
56285;SDS011;42191;47.562;9.686;2023-03-25T06:00:10;39.85;;;37.45;;
56285;SDS011;42191;47.562;9.686;2023-03-25T06:02:38;38.38;;;36.10;;
56285;SDS011;42191;47.562;9.686;2023-03-25T06:05:07;37.63;;;35.42;;
56285;SDS011;42191;47.562;9.686;2023-03-25T06:07:37;36.95;;;34.75;;
56285;SDS011;42191;47.562;9.686;2023-03-25T06:10:09;37.03;;;34.83;;
56285;SDS011;42191;47.562;9.686;2023-03-25T06:12:36;37.20;;;35.05;;
56285;SDS011;42191;47.562;9.686;2023-03-25T06:15:06;35.97;;;33.88;;
56285;SDS011;42191;47.562;9.686;2023-03-25T06:17:34;38.67;;;36.38;;
56285;SDS011;42191;47.562;9.686;2023-03-25T06:20:03;37.88;;;35.67;;
56285;SDS011;42191;47.562;9.686;2023-03-25T06:22:39;37.20;;;35.03;;
56285;SDS011;42191;47.562;9.686;2023-03-25T06:25:08;35.88;;;33.78;;
56285;SDS011;42191;47.562;9.686;2023-03-25T06:27:35;36.33;;;34.22;;
56285;SDS011;42191;47.562;9.686;2023-03-25T06:30:04;38.00;;;35.80;;
56285;SDS011;42191;47.562;9.686;2023-03-25T06:32:32;38.78;;;36.47;;
56285;SDS011;42191;47.562;9.686;2023-03-25T06:34:58;36.92;;;34.67;;
56285;SDS011;42191;47.562;9.686;2023-03-25T06:37:24;36.03;;;33.92;;
56285;SDS011;42191;47.562;9.686;2023-03-25T06:39:52;36.72;;;34.63;;
56285;SDS011;42191;47.562;9.686;2023-03-25T06:42:21;37.10;;;34.95;;
56285;SDS011;42191;47.562;9.686;2023-03-25T06:44:48;37.78;;;35.55;;
56285;SDS011;42191;47.562;9.686;2023-03-25T06:47:14;37.67;;;35.25;;
56285;SDS011;42191;47.562;9.686;2023-03-25T06:49:40;37.10;;;34.90;;
56285;SDS011;42191;47.562;9.686;2023-03-25T06:52:07;36.67;;;34.55;;
56285;SDS011;42191;47.562;9.686;2023-03-25T06:54:33;36.00;;;33.90;;
56285;SDS011;42191;47.562;9.686;2023-03-25T06:56:59;36.47;;;34.38;;
56285;SDS011;42191;47.562;9.686;2023-03-25T06:59:25;38.55;;;36.30;;
56285;SDS011;42191;47.562;9.686;2023-03-25T07:01:51;36.28;;;34.17;;
56285;SDS011;42191;47.562;9.686;2023-03-25T07:04:18;37.17;;;35.05;;
56285;SDS011;42191;47.562;9.686;2023-03-25T07:06:44;38.60;;;36.30;;
56285;SDS011;42191;47.562;9.686;2023-03-25T07:09:10;36.92;;;34.75;;
56285;SDS011;42191;47.562;9.686;2023-03-25T07:11:36;35.63;;;33.42;;
56285;SDS011;42191;47.562;9.686;2023-03-25T07:14:02;36.75;;;34.65;;
56285;SDS011;42191;47.562;9.686;2023-03-25T07:16:28;35.60;;;33.53;;
56285;SDS011;42191;47.562;9.686;2023-03-25T07:18:55;36.65;;;34.53;;
56285;SDS011;42191;47.562;9.686;2023-03-25T07:21:22;35.30;;;33.28;;
56285;SDS011;42191;47.562;9.686;2023-03-25T07:23:49;36.97;;;34.85;;
56285;SDS011;42191;47.562;9.686;2023-03-25T07:26:15;33.38;;;31.48;;
56285;SDS011;42191;47.562;9.686;2023-03-25T07:28:42;37.92;;;35.72;;
56285;SDS011;42191;47.562;9.686;2023-03-25T07:31:09;36.28;;;34.17;;
56285;SDS011;42191;47.562;9.686;2023-03-25T07:33:37;35.20;;;33.20;;
56285;SDS011;42191;47.562;9.686;2023-03-25T07:36:04;39.08;;;36.67;;
56285;SDS011;42191;47.562;9.686;2023-03-25T07:38:31;38.60;;;36.08;;
56285;SDS011;42191;47.562;9.686;2023-03-25T07:40:58;36.85;;;34.65;;
56285;SDS011;42191;47.562;9.686;2023-03-25T07:43:28;35.38;;;33.08;;
56285;SDS011;42191;47.562;9.686;2023-03-25T07:45:57;35.17;;;33.10;;
56285;SDS011;42191;47.562;9.686;2023-03-25T07:48:24;35.75;;;33.65;;
56285;SDS011;42191;47.562;9.686;2023-03-25T07:50:50;34.30;;;32.30;;
56285;SDS011;42191;47.562;9.686;2023-03-25T07:53:17;36.30;;;34.17;;
56285;SDS011;42191;47.562;9.686;2023-03-25T07:55:44;36.10;;;34.00;;
56285;SDS011;42191;47.562;9.686;2023-03-25T07:58:12;35.88;;;33.63;;
56285;SDS011;42191;47.562;9.686;2023-03-25T08:00:38;34.78;;;32.67;;
56285;SDS011;42191;47.562;9.686;2023-03-25T08:03:04;41.05;;;38.25;;
56285;SDS011;42191;47.562;9.686;2023-03-25T08:05:30;37.05;;;34.65;;
56285;SDS011;42191;47.562;9.686;2023-03-25T08:07:57;40.13;;;37.30;;
56285;SDS011;42191;47.562;9.686;2023-03-25T08:10:26;40.72;;;37.70;;
56285;SDS011;42191;47.562;9.686;2023-03-25T08:12:52;36.92;;;34.58;;
56285;SDS011;42191;47.562;9.686;2023-03-25T08:15:19;35.78;;;33.60;;
56285;SDS011;42191;47.562;9.686;2023-03-25T08:17:48;36.88;;;34.60;;
56285;SDS011;42191;47.562;9.686;2023-03-25T08:20:16;37.30;;;35.00;;
56285;SDS011;42191;47.562;9.686;2023-03-25T08:22:45;36.85;;;34.60;;
56285;SDS011;42191;47.562;9.686;2023-03-25T08:25:12;35.55;;;33.42;;
56285;SDS011;42191;47.562;9.686;2023-03-25T08:27:38;35.30;;;33.10;;
56285;SDS011;42191;47.562;9.686;2023-03-25T08:30:05;35.00;;;32.90;;
56285;SDS011;42191;47.562;9.686;2023-03-25T08:32:34;37.40;;;35.20;;
56285;SDS011;42191;47.562;9.686;2023-03-25T08:35:03;38.08;;;35.75;;
56285;SDS011;42191;47.562;9.686;2023-03-25T08:37:30;35.63;;;33.53;;
56285;SDS011;42191;47.562;9.686;2023-03-25T08:39:59;36.70;;;34.50;;
56285;SDS011;42191;47.562;9.686;2023-03-25T08:42:31;34.87;;;32.87;;
56285;SDS011;42191;47.562;9.686;2023-03-25T08:44:57;35.60;;;33.50;;
56285;SDS011;42191;47.562;9.686;2023-03-25T08:47:23;33.90;;;31.90;;
56285;SDS011;42191;47.562;9.686;2023-03-25T08:49:49;33.60;;;31.63;;
56285;SDS011;42191;47.562;9.686;2023-03-25T08:52:15;35.85;;;33.75;;
56285;SDS011;42191;47.562;9.686;2023-03-25T08:54:41;36.58;;;34.45;;
56285;SDS011;42191;47.562;9.686;2023-03-25T08:57:08;37.53;;;35.33;;
56285;SDS011;42191;47.562;9.686;2023-03-25T08:59:34;36.38;;;34.25;;
56285;SDS011;42191;47.562;9.686;2023-03-25T09:02:00;35.60;;;33.50;;
56285;SDS011;42191;47.562;9.686;2023-03-25T09:04:27;36.45;;;34.25;;
56285;SDS011;42191;47.562;9.686;2023-03-25T09:06:54;35.15;;;33.15;;
56285;SDS011;42191;47.562;9.686;2023-03-25T09:09:21;35.17;;;33.13;;
56285;SDS011;42191;47.562;9.686;2023-03-25T09:11:47;36.15;;;34.05;;
56285;SDS011;42191;47.562;9.686;2023-03-25T09:14:14;35.65;;;33.55;;
56285;SDS011;42191;47.562;9.686;2023-03-25T09:16:40;35.22;;;33.13;;
56285;SDS011;42191;47.562;9.686;2023-03-25T09:19:07;37.42;;;35.22;;
56285;SDS011;42191;47.562;9.686;2023-03-25T09:21:34;36.65;;;34.45;;
56285;SDS011;42191;47.562;9.686;2023-03-25T09:24:01;36.50;;;34.30;;
56285;SDS011;42191;47.562;9.686;2023-03-25T09:26:32;37.22;;;34.92;;
56285;SDS011;42191;47.562;9.686;2023-03-25T09:28:59;35.42;;;33.35;;
56285;SDS011;42191;47.562;9.686;2023-03-25T09:31:25;36.22;;;33.88;;
56285;SDS011;42191;47.562;9.686;2023-03-25T09:33:51;36.90;;;34.60;;
56285;SDS011;42191;47.562;9.686;2023-03-25T09:36:18;35.67;;;33.58;;
56285;SDS011;42191;47.562;9.686;2023-03-25T09:38:44;37.05;;;34.75;;
56285;SDS011;42191;47.562;9.686;2023-03-25T09:41:22;38.00;;;35.63;;
56285;SDS011;42191;47.562;9.686;2023-03-25T09:44:01;36.42;;;34.20;;
56285;SDS011;42191;47.562;9.686;2023-03-25T09:46:39;37.33;;;35.05;;
56285;SDS011;42191;47.562;9.686;2023-03-25T09:49:12;38.03;;;35.80;;
56285;SDS011;42191;47.562;9.686;2023-03-25T09:51:47;37.58;;;35.38;;
56285;SDS011;42191;47.562;9.686;2023-03-25T09:54:19;37.17;;;34.97;;
56285;SDS011;42191;47.562;9.686;2023-03-25T09:57:01;35.50;;;33.40;;
56285;SDS011;42191;47.562;9.686;2023-03-25T09:59:41;36.47;;;34.27;;
56285;SDS011;42191;47.562;9.686;2023-03-25T10:05:24;34.85;;;32.75;;
56285;SDS011;42191;47.562;9.686;2023-03-25T10:08:07;37.80;;;35.60;;
56285;SDS011;42191;47.562;9.686;2023-03-25T10:21:25;35.42;;;33.33;;
56285;SDS011;42191;47.562;9.686;2023-03-25T10:26:43;37.97;;;35.58;;
56285;SDS011;42191;47.562;9.686;2023-03-25T10:32:31;36.50;;;34.33;;
56285;SDS011;42191;47.562;9.686;2023-03-25T10:35:16;35.38;;;33.08;;
56285;SDS011;42191;47.562;9.686;2023-03-25T10:37:52;35.20;;;33.10;;
56285;SDS011;42191;47.562;9.686;2023-03-25T10:40:29;35.70;;;33.55;;
56285;SDS011;42191;47.562;9.686;2023-03-25T10:43:23;34.88;;;32.80;;
56285;SDS011;42191;47.562;9.686;2023-03-25T10:45:58;34.95;;;32.88;;
56285;SDS011;42191;47.562;9.686;2023-03-25T10:48:42;34.10;;;32.10;;
56285;SDS011;42191;47.562;9.686;2023-03-25T10:51:11;34.97;;;32.88;;
56285;SDS011;42191;47.562;9.686;2023-03-25T10:53:45;35.97;;;33.88;;
56285;SDS011;42191;47.562;9.686;2023-03-25T10:58:42;36.22;;;34.05;;
56285;SDS011;42191;47.562;9.686;2023-03-25T11:01:13;34.85;;;32.75;;
56285;SDS011;42191;47.562;9.686;2023-03-25T11:03:41;35.03;;;32.92;;
56285;SDS011;42191;47.562;9.686;2023-03-25T11:06:17;34.25;;;32.17;;
56285;SDS011;42191;47.562;9.686;2023-03-25T11:09:11;33.88;;;31.77;;
56285;SDS011;42191;47.562;9.686;2023-03-25T11:11:38;35.50;;;33.42;;
56285;SDS011;42191;47.562;9.686;2023-03-25T11:14:05;34.60;;;32.47;;
56285;SDS011;42191;47.562;9.686;2023-03-25T11:16:33;32.88;;;30.98;;
56285;SDS011;42191;47.562;9.686;2023-03-25T11:19:24;36.45;;;34.35;;
56285;SDS011;42191;47.562;9.686;2023-03-25T11:21:56;35.00;;;33.00;;
56285;SDS011;42191;47.562;9.686;2023-03-25T11:24:28;33.55;;;31.63;;
56285;SDS011;42191;47.562;9.686;2023-03-25T11:26:57;33.95;;;31.95;;
56285;SDS011;42191;47.562;9.686;2023-03-25T11:29:25;33.20;;;31.23;;
56285;SDS011;42191;47.562;9.686;2023-03-25T11:31:57;33.30;;;31.30;;
56285;SDS011;42191;47.562;9.686;2023-03-25T11:34:31;34.58;;;32.47;;
56285;SDS011;42191;47.562;9.686;2023-03-25T11:37:21;35.15;;;33.05;;
56285;SDS011;42191;47.562;9.686;2023-03-25T11:39:52;35.10;;;33.10;;
56285;SDS011;42191;47.562;9.686;2023-03-25T11:42:30;36.38;;;33.97;;
56285;SDS011;42191;47.562;9.686;2023-03-25T11:45:03;36.50;;;34.35;;
56285;SDS011;42191;47.562;9.686;2023-03-25T11:47:32;35.38;;;33.28;;
56285;SDS011;42191;47.562;9.686;2023-03-25T11:50:00;35.25;;;33.17;;
56285;SDS011;42191;47.562;9.686;2023-03-25T11:52:33;36.70;;;34.55;;
56285;SDS011;42191;47.562;9.686;2023-03-25T11:55:05;34.38;;;32.38;;
56285;SDS011;42191;47.562;9.686;2023-03-25T11:57:39;37.10;;;34.83;;
56285;SDS011;42191;47.562;9.686;2023-03-25T12:03:14;36.25;;;33.97;;
56285;SDS011;42191;47.562;9.686;2023-03-25T12:06:45;37.83;;;35.53;;
56285;SDS011;42191;47.562;9.686;2023-03-25T12:08:43;36.22;;;34.05;;
56285;SDS011;42191;47.562;9.686;2023-03-25T12:11:19;36.00;;;33.85;;
56285;SDS011;42191;47.562;9.686;2023-03-25T12:16:47;34.75;;;32.63;;
56285;SDS011;42191;47.562;9.686;2023-03-25T12:22:47;36.13;;;34.03;;
56285;SDS011;42191;47.562;9.686;2023-03-25T12:25:31;35.80;;;33.70;;
56285;SDS011;42191;47.562;9.686;2023-03-25T12:30:52;36.60;;;34.50;;
56285;SDS011;42191;47.562;9.686;2023-03-25T12:36:25;35.33;;;33.22;;
56285;SDS011;42191;47.562;9.686;2023-03-25T12:39:11;35.75;;;33.55;;
56285;SDS011;42191;47.562;9.686;2023-03-25T12:44:56;37.30;;;35.10;;
56285;SDS011;42191;47.562;9.686;2023-03-25T12:51:03;33.72;;;31.73;;
56285;SDS011;42191;47.562;9.686;2023-03-25T12:56:42;36.95;;;34.75;;
56285;SDS011;42191;47.562;9.686;2023-03-25T13:04:49;36.65;;;34.55;;
56285;SDS011;42191;47.562;9.686;2023-03-25T13:07:29;35.90;;;33.78;;
56285;SDS011;42191;47.562;9.686;2023-03-25T13:10:18;34.13;;;32.03;;
56285;SDS011;42191;47.562;9.686;2023-03-25T13:15:38;33.85;;;31.85;;
56285;SDS011;42191;47.562;9.686;2023-03-25T13:18:26;34.70;;;32.70;;
56285;SDS011;42191;47.562;9.686;2023-03-25T13:21:03;35.50;;;33.40;;
56285;SDS011;42191;47.562;9.686;2023-03-25T13:23:34;35.70;;;33.60;;
56285;SDS011;42191;47.562;9.686;2023-03-25T13:26:05;33.10;;;31.10;;
56285;SDS011;42191;47.562;9.686;2023-03-25T13:31:05;36.22;;;34.03;;
56285;SDS011;42191;47.562;9.686;2023-03-25T13:33:44;35.30;;;33.20;;
56285;SDS011;42191;47.562;9.686;2023-03-25T13:36:30;34.22;;;32.03;;
56285;SDS011;42191;47.562;9.686;2023-03-25T13:39:02;34.25;;;32.15;;
56285;SDS011;42191;47.562;9.686;2023-03-25T13:41:47;33.45;;;31.45;;
56285;SDS011;42191;47.562;9.686;2023-03-25T13:44:24;32.42;;;30.48;;
56285;SDS011;42191;47.562;9.686;2023-03-25T13:47:04;33.05;;;31.15;;
56285;SDS011;42191;47.562;9.686;2023-03-25T13:49:51;32.35;;;30.42;;
56285;SDS011;42191;47.562;9.686;2023-03-25T13:52:26;34.03;;;31.92;;
56285;SDS011;42191;47.562;9.686;2023-03-25T13:55:03;33.50;;;31.50;;
56285;SDS011;42191;47.562;9.686;2023-03-25T13:58:10;32.97;;;31.00;;
56285;SDS011;42191;47.562;9.686;2023-03-25T14:06:21;33.50;;;31.50;;
56285;SDS011;42191;47.562;9.686;2023-03-25T14:12:28;31.35;;;29.45;;
56285;SDS011;42191;47.562;9.686;2023-03-25T14:15:05;29.35;;;27.65;;
56285;SDS011;42191;47.562;9.686;2023-03-25T14:17:42;31.05;;;29.25;;
56285;SDS011;42191;47.562;9.686;2023-03-25T14:20:16;30.75;;;28.95;;
56285;SDS011;42191;47.562;9.686;2023-03-25T14:23:06;30.65;;;28.85;;
56285;SDS011;42191;47.562;9.686;2023-03-25T14:25:38;29.33;;;27.63;;
56285;SDS011;42191;47.562;9.686;2023-03-25T14:28:10;28.88;;;27.17;;
56285;SDS011;42191;47.562;9.686;2023-03-25T14:30:42;29.27;;;27.52;;
56285;SDS011;42191;47.562;9.686;2023-03-25T14:33:11;29.55;;;27.85;;
56285;SDS011;42191;47.562;9.686;2023-03-25T14:48:22;29.20;;;27.45;;
56285;SDS011;42191;47.562;9.686;2023-03-25T14:51:13;29.70;;;28.00;;
56285;SDS011;42191;47.562;9.686;2023-03-25T14:53:48;28.20;;;26.60;;
56285;SDS011;42191;47.562;9.686;2023-03-25T14:56:18;29.13;;;27.33;;
56285;SDS011;42191;47.562;9.686;2023-03-25T14:58:50;31.80;;;29.83;;
56285;SDS011;42191;47.562;9.686;2023-03-25T15:01:20;31.60;;;29.70;;
56285;SDS011;42191;47.562;9.686;2023-03-25T15:04:05;30.48;;;28.67;;
56285;SDS011;42191;47.562;9.686;2023-03-25T15:06:38;31.88;;;29.98;;
56285;SDS011;42191;47.562;9.686;2023-03-25T15:09:06;29.52;;;27.75;;
56285;SDS011;42191;47.562;9.686;2023-03-25T15:11:37;30.90;;;29.00;;
56285;SDS011;42191;47.562;9.686;2023-03-25T15:14:15;29.17;;;27.45;;
56285;SDS011;42191;47.562;9.686;2023-03-25T15:19:18;29.33;;;27.63;;
56285;SDS011;42191;47.562;9.686;2023-03-25T15:24:27;30.05;;;28.27;;
56285;SDS011;42191;47.562;9.686;2023-03-25T15:26:56;29.73;;;28.02;;
56285;SDS011;42191;47.562;9.686;2023-03-25T15:32:04;30.98;;;29.17;;
56285;SDS011;42191;47.562;9.686;2023-03-25T15:34:49;30.65;;;28.85;;
56285;SDS011;42191;47.562;9.686;2023-03-25T15:40:49;31.50;;;29.63;;
56285;SDS011;42191;47.562;9.686;2023-03-25T15:54:49;33.60;;;31.60;;
56285;SDS011;42191;47.562;9.686;2023-03-25T15:57:41;30.65;;;28.85;;
56285;SDS011;42191;47.562;9.686;2023-03-25T16:05:28;31.95;;;30.05;;
56285;SDS011;42191;47.562;9.686;2023-03-25T16:07:57;31.73;;;29.85;;
56285;SDS011;42191;47.562;9.686;2023-03-25T16:10:29;32.90;;;30.90;;
56285;SDS011;42191;47.562;9.686;2023-03-25T16:13:03;33.05;;;31.05;;
56285;SDS011;42191;47.562;9.686;2023-03-25T16:15:34;32.70;;;30.80;;
56285;SDS011;42191;47.562;9.686;2023-03-25T16:18:02;31.40;;;29.60;;
56285;SDS011;42191;47.562;9.686;2023-03-25T16:20:31;31.85;;;29.95;;
56285;SDS011;42191;47.562;9.686;2023-03-25T16:22:59;31.77;;;29.80;;
56285;SDS011;42191;47.562;9.686;2023-03-25T16:25:37;32.20;;;30.30;;
56285;SDS011;42191;47.562;9.686;2023-03-25T16:28:16;33.25;;;31.15;;
56285;SDS011;42191;47.562;9.686;2023-03-25T16:31:03;33.75;;;31.75;;
56285;SDS011;42191;47.562;9.686;2023-03-25T16:33:31;33.53;;;31.02;;
56285;SDS011;42191;47.562;9.686;2023-03-25T16:36:05;34.47;;;32.30;;
56285;SDS011;42191;47.562;9.686;2023-03-25T16:38:35;34.55;;;32.45;;
56285;SDS011;42191;47.562;9.686;2023-03-25T16:41:11;31.80;;;29.95;;
56285;SDS011;42191;47.562;9.686;2023-03-25T16:43:38;32.92;;;30.83;;
56285;SDS011;42191;47.562;9.686;2023-03-25T16:46:06;36.05;;;33.10;;
56285;SDS011;42191;47.562;9.686;2023-03-25T16:48:35;38.97;;;36.17;;
56285;SDS011;42191;47.562;9.686;2023-03-25T16:51:20;40.25;;;37.35;;
56285;SDS011;42191;47.562;9.686;2023-03-25T16:53:59;36.13;;;33.92;;
56285;SDS011;42191;47.562;9.686;2023-03-25T16:56:31;34.42;;;32.25;;
56285;SDS011;42191;47.562;9.686;2023-03-25T16:59:05;35.38;;;33.28;;
56285;SDS011;42191;47.562;9.686;2023-03-25T17:01:40;35.15;;;33.05;;